sensor_id;sensor_type;location;lat;lon;timestamp;P1;durP1;ratioP1;P2;durP2;ratioP2
17091;SDS011;8661;45.700;4.880;2022-10-04T00:02:01;1.50;;;1.40;;
17091;SDS011;8661;45.700;4.880;2022-10-04T00:04:41;2.17;;;1.67;;
17091;SDS011;8661;45.700;4.880;2022-10-04T00:07:15;2.50;;;1.40;;
17091;SDS011;8661;45.700;4.880;2022-10-04T00:09:47;3.63;;;1.63;;
17091;SDS011;8661;45.700;4.880;2022-10-04T00:12:18;2.27;;;1.70;;
17091;SDS011;8661;45.700;4.880;2022-10-04T00:14:48;2.27;;;1.60;;
17091;SDS011;8661;45.700;4.880;2022-10-04T00:17:21;1.60;;;1.50;;
17091;SDS011;8661;45.700;4.880;2022-10-04T00:19:51;1.97;;;1.73;;
17091;SDS011;8661;45.700;4.880;2022-10-04T00:22:21;1.70;;;1.50;;
17091;SDS011;8661;45.700;4.880;2022-10-04T00:30:40;5.80;;;1.60;;
17091;SDS011;8661;45.700;4.880;2022-10-04T00:33:07;2.07;;;1.80;;
17091;SDS011;8661;45.700;4.880;2022-10-04T00:35:47;1.87;;;1.67;;
17091;SDS011;8661;45.700;4.880;2022-10-04T00:38:16;2.70;;;1.67;;
17091;SDS011;8661;45.700;4.880;2022-10-04T00:40:53;3.10;;;1.50;;
17091;SDS011;8661;45.700;4.880;2022-10-04T00:43:27;2.87;;;1.77;;
17091;SDS011;8661;45.700;4.880;2022-10-04T00:45:58;3.80;;;1.80;;
17091;SDS011;8661;45.700;4.880;2022-10-04T00:48:30;2.93;;;1.83;;
17091;SDS011;8661;45.700;4.880;2022-10-04T00:51:06;2.03;;;1.50;;
17091;SDS011;8661;45.700;4.880;2022-10-04T00:53:40;5.10;;;1.77;;
17091;SDS011;8661;45.700;4.880;2022-10-04T00:56:23;2.40;;;1.67;;
17091;SDS011;8661;45.700;4.880;2022-10-04T01:01:53;2.03;;;1.73;;
17091;SDS011;8661;45.700;4.880;2022-10-04T01:04:29;2.40;;;1.63;;
17091;SDS011;8661;45.700;4.880;2022-10-04T01:07:08;2.27;;;1.70;;
17091;SDS011;8661;45.700;4.880;2022-10-04T01:09:43;2.17;;;1.70;;
17091;SDS011;8661;45.700;4.880;2022-10-04T01:12:15;2.60;;;1.60;;
17091;SDS011;8661;45.700;4.880;2022-10-04T01:14:58;2.50;;;1.70;;
17091;SDS011;8661;45.700;4.880;2022-10-04T01:17:31;3.40;;;2.10;;
17091;SDS011;8661;45.700;4.880;2022-10-04T01:19:58;3.87;;;2.00;;
17091;SDS011;8661;45.700;4.880;2022-10-04T01:22:37;2.63;;;1.90;;
17091;SDS011;8661;45.700;4.880;2022-10-04T01:25:06;4.50;;;1.60;;
17091;SDS011;8661;45.700;4.880;2022-10-04T01:27:35;4.53;;;1.93;;
17091;SDS011;8661;45.700;4.880;2022-10-04T01:30:07;5.33;;;2.27;;
17091;SDS011;8661;45.700;4.880;2022-10-04T01:32:37;2.30;;;1.87;;
17091;SDS011;8661;45.700;4.880;2022-10-04T01:35:05;2.23;;;1.93;;
17091;SDS011;8661;45.700;4.880;2022-10-04T01:37:33;3.63;;;1.80;;
17091;SDS011;8661;45.700;4.880;2022-10-04T01:40:03;2.27;;;1.90;;
17091;SDS011;8661;45.700;4.880;2022-10-04T01:42:34;3.57;;;1.80;;
17091;SDS011;8661;45.700;4.880;2022-10-04T01:45:06;3.13;;;1.90;;
17091;SDS011;8661;45.700;4.880;2022-10-04T01:47:40;2.67;;;2.07;;
17091;SDS011;8661;45.700;4.880;2022-10-04T01:50:10;2.23;;;1.70;;
17091;SDS011;8661;45.700;4.880;2022-10-04T01:52:44;5.23;;;2.27;;
17091;SDS011;8661;45.700;4.880;2022-10-04T01:55:15;2.77;;;2.03;;
17091;SDS011;8661;45.700;4.880;2022-10-04T01:57:46;2.83;;;2.10;;
17091;SDS011;8661;45.700;4.880;2022-10-04T02:00:17;4.33;;;2.00;;
17091;SDS011;8661;45.700;4.880;2022-10-04T02:02:49;3.90;;;1.90;;
17091;SDS011;8661;45.700;4.880;2022-10-04T02:05:23;2.60;;;2.07;;
17091;SDS011;8661;45.700;4.880;2022-10-04T02:07:55;2.50;;;1.87;;
17091;SDS011;8661;45.700;4.880;2022-10-04T02:10:27;2.83;;;2.17;;
17091;SDS011;8661;45.700;4.880;2022-10-04T02:12:54;2.73;;;1.77;;
17091;SDS011;8661;45.700;4.880;2022-10-04T02:15:22;2.47;;;2.07;;
17091;SDS011;8661;45.700;4.880;2022-10-04T02:17:52;5.47;;;2.07;;
17091;SDS011;8661;45.700;4.880;2022-10-04T02:20:22;3.37;;;1.90;;
17091;SDS011;8661;45.700;4.880;2022-10-04T02:22:53;2.87;;;1.80;;
17091;SDS011;8661;45.700;4.880;2022-10-04T02:25:27;2.20;;;2.00;;
17091;SDS011;8661;45.700;4.880;2022-10-04T02:27:54;4.57;;;2.10;;
17091;SDS011;8661;45.700;4.880;2022-10-04T02:30:22;4.57;;;2.20;;
17091;SDS011;8661;45.700;4.880;2022-10-04T02:32:51;2.30;;;2.10;;
17091;SDS011;8661;45.700;4.880;2022-10-04T02:35:25;4.17;;;2.10;;
17091;SDS011;8661;45.700;4.880;2022-10-04T02:38:00;2.73;;;1.87;;
17091;SDS011;8661;45.700;4.880;2022-10-04T02:40:33;3.60;;;2.03;;
17091;SDS011;8661;45.700;4.880;2022-10-04T02:43:08;2.70;;;1.97;;
17091;SDS011;8661;45.700;4.880;2022-10-04T02:45:40;2.33;;;2.10;;
17091;SDS011;8661;45.700;4.880;2022-10-04T02:48:14;3.43;;;2.00;;
17091;SDS011;8661;45.700;4.880;2022-10-04T02:50:54;2.20;;;1.90;;
17091;SDS011;8661;45.700;4.880;2022-10-04T02:53:30;3.20;;;2.20;;
17091;SDS011;8661;45.700;4.880;2022-10-04T02:56:08;3.57;;;2.17;;
17091;SDS011;8661;45.700;4.880;2022-10-04T02:58:36;3.70;;;2.43;;
17091;SDS011;8661;45.700;4.880;2022-10-04T03:01:05;5.03;;;2.50;;
17091;SDS011;8661;45.700;4.880;2022-10-04T03:03:32;2.87;;;2.57;;
17091;SDS011;8661;45.700;4.880;2022-10-04T03:06:03;3.67;;;2.43;;
17091;SDS011;8661;45.700;4.880;2022-10-04T03:08:34;4.33;;;2.60;;
17091;SDS011;8661;45.700;4.880;2022-10-04T03:11:09;3.47;;;2.30;;
17091;SDS011;8661;45.700;4.880;2022-10-04T03:13:40;6.93;;;2.70;;
17091;SDS011;8661;45.700;4.880;2022-10-04T03:16:11;3.10;;;2.13;;
17091;SDS011;8661;45.700;4.880;2022-10-04T03:18:39;2.73;;;2.20;;
17091;SDS011;8661;45.700;4.880;2022-10-04T03:21:07;2.67;;;2.10;;
17091;SDS011;8661;45.700;4.880;2022-10-04T03:23:38;3.47;;;2.50;;
17091;SDS011;8661;45.700;4.880;2022-10-04T03:26:09;5.17;;;3.00;;
17091;SDS011;8661;45.700;4.880;2022-10-04T03:28:45;4.27;;;2.33;;
17091;SDS011;8661;45.700;4.880;2022-10-04T03:31:13;6.20;;;2.60;;
17091;SDS011;8661;45.700;4.880;2022-10-04T03:33:41;3.63;;;2.50;;
17091;SDS011;8661;45.700;4.880;2022-10-04T03:36:11;4.70;;;2.90;;
17091;SDS011;8661;45.700;4.880;2022-10-04T03:38:41;4.57;;;2.80;;
17091;SDS011;8661;45.700;4.880;2022-10-04T03:41:09;5.43;;;3.00;;
17091;SDS011;8661;45.700;4.880;2022-10-04T03:43:40;4.10;;;3.13;;
17091;SDS011;8661;45.700;4.880;2022-10-04T03:46:10;4.90;;;2.57;;
17091;SDS011;8661;45.700;4.880;2022-10-04T03:48:38;6.00;;;2.80;;
17091;SDS011;8661;45.700;4.880;2022-10-04T03:51:12;4.50;;;3.03;;
17091;SDS011;8661;45.700;4.880;2022-10-04T03:53:43;4.37;;;2.73;;
17091;SDS011;8661;45.700;4.880;2022-10-04T03:56:12;5.97;;;2.63;;
17091;SDS011;8661;45.700;4.880;2022-10-04T03:58:42;4.13;;;2.50;;
17091;SDS011;8661;45.700;4.880;2022-10-04T04:01:11;4.87;;;2.97;;
17091;SDS011;8661;45.700;4.880;2022-10-04T04:03:49;4.63;;;2.80;;
17091;SDS011;8661;45.700;4.880;2022-10-04T04:06:22;4.20;;;2.90;;
17091;SDS011;8661;45.700;4.880;2022-10-04T04:08:52;5.47;;;3.23;;
17091;SDS011;8661;45.700;4.880;2022-10-04T04:11:22;4.67;;;3.60;;
17091;SDS011;8661;45.700;4.880;2022-10-04T04:13:52;6.20;;;3.67;;
17091;SDS011;8661;45.700;4.880;2022-10-04T04:16:23;5.43;;;3.60;;
17091;SDS011;8661;45.700;4.880;2022-10-04T04:18:51;8.37;;;4.33;;
17091;SDS011;8661;45.700;4.880;2022-10-04T04:21:19;6.53;;;3.63;;
17091;SDS011;8661;45.700;4.880;2022-10-04T04:23:49;9.63;;;3.73;;
17091;SDS011;8661;45.700;4.880;2022-10-04T04:26:22;5.07;;;3.70;;
17091;SDS011;8661;45.700;4.880;2022-10-04T04:28:53;5.27;;;3.27;;
17091;SDS011;8661;45.700;4.880;2022-10-04T04:31:24;5.27;;;3.33;;
17091;SDS011;8661;45.700;4.880;2022-10-04T04:33:55;4.60;;;3.37;;
17091;SDS011;8661;45.700;4.880;2022-10-04T04:36:24;4.20;;;3.00;;
17091;SDS011;8661;45.700;4.880;2022-10-04T04:38:53;5.73;;;3.50;;
17091;SDS011;8661;45.700;4.880;2022-10-04T04:41:49;7.07;;;3.27;;
17091;SDS011;8661;45.700;4.880;2022-10-04T04:44:16;5.47;;;3.33;;
17091;SDS011;8661;45.700;4.880;2022-10-04T04:46:44;6.87;;;3.73;;
17091;SDS011;8661;45.700;4.880;2022-10-04T04:49:12;4.10;;;3.30;;
17091;SDS011;8661;45.700;4.880;2022-10-04T04:51:45;4.63;;;3.40;;
17091;SDS011;8661;45.700;4.880;2022-10-04T04:54:16;4.37;;;3.33;;
17091;SDS011;8661;45.700;4.880;2022-10-04T04:56:48;5.50;;;3.73;;
17091;SDS011;8661;45.700;4.880;2022-10-04T04:59:17;5.77;;;3.20;;
17091;SDS011;8661;45.700;4.880;2022-10-04T05:01:47;4.80;;;3.57;;
17091;SDS011;8661;45.700;4.880;2022-10-04T05:04:16;7.03;;;3.97;;
17091;SDS011;8661;45.700;4.880;2022-10-04T05:06:46;7.23;;;3.97;;
17091;SDS011;8661;45.700;4.880;2022-10-04T05:09:27;5.30;;;3.97;;
17091;SDS011;8661;45.700;4.880;2022-10-04T05:11:56;4.23;;;3.40;;
17091;SDS011;8661;45.700;4.880;2022-10-04T05:14:31;7.77;;;4.03;;
17091;SDS011;8661;45.700;4.880;2022-10-04T05:16:59;7.20;;;4.10;;
17091;SDS011;8661;45.700;4.880;2022-10-04T05:19:27;9.83;;;4.67;;
17091;SDS011;8661;45.700;4.880;2022-10-04T05:21:57;5.53;;;4.00;;
17091;SDS011;8661;45.700;4.880;2022-10-04T05:24:28;6.13;;;4.13;;
17091;SDS011;8661;45.700;4.880;2022-10-04T05:26:58;5.87;;;4.00;;
17091;SDS011;8661;45.700;4.880;2022-10-04T05:29:27;6.70;;;4.23;;
17091;SDS011;8661;45.700;4.880;2022-10-04T05:32:08;5.50;;;4.00;;
17091;SDS011;8661;45.700;4.880;2022-10-04T05:34:46;7.27;;;4.43;;
17091;SDS011;8661;45.700;4.880;2022-10-04T05:37:21;9.83;;;4.93;;
17091;SDS011;8661;45.700;4.880;2022-10-04T05:40:03;6.73;;;4.57;;
17091;SDS011;8661;45.700;4.880;2022-10-04T05:42:41;6.57;;;4.27;;
17091;SDS011;8661;45.700;4.880;2022-10-04T05:45:11;11.13;;;4.83;;
17091;SDS011;8661;45.700;4.880;2022-10-04T05:47:41;6.63;;;4.73;;
17091;SDS011;8661;45.700;4.880;2022-10-04T05:50:13;7.23;;;4.43;;
17091;SDS011;8661;45.700;4.880;2022-10-04T05:52:42;8.10;;;4.37;;
17091;SDS011;8661;45.700;4.880;2022-10-04T05:55:16;8.47;;;4.97;;
17091;SDS011;8661;45.700;4.880;2022-10-04T05:57:53;8.53;;;4.80;;
17091;SDS011;8661;45.700;4.880;2022-10-04T06:00:33;8.40;;;4.53;;
17091;SDS011;8661;45.700;4.880;2022-10-04T06:03:23;9.70;;;5.20;;
17091;SDS011;8661;45.700;4.880;2022-10-04T06:06:01;8.30;;;4.97;;
17091;SDS011;8661;45.700;4.880;2022-10-04T06:08:35;6.47;;;4.17;;
17091;SDS011;8661;45.700;4.880;2022-10-04T06:11:20;5.93;;;4.23;;
17091;SDS011;8661;45.700;4.880;2022-10-04T06:17:08;8.47;;;5.37;;
17091;SDS011;8661;45.700;4.880;2022-10-04T06:19:57;8.13;;;4.80;;
17091;SDS011;8661;45.700;4.880;2022-10-04T06:22:41;8.03;;;4.50;;
17091;SDS011;8661;45.700;4.880;2022-10-04T06:25:11;9.03;;;5.47;;
17091;SDS011;8661;45.700;4.880;2022-10-04T06:27:52;11.60;;;5.70;;
17091;SDS011;8661;45.700;4.880;2022-10-04T06:30:32;11.00;;;6.40;;
17091;SDS011;8661;45.700;4.880;2022-10-04T06:33:19;9.13;;;6.30;;
17091;SDS011;8661;45.700;4.880;2022-10-04T06:36:06;9.03;;;5.57;;
17091;SDS011;8661;45.700;4.880;2022-10-04T06:39:11;8.97;;;5.80;;
17091;SDS011;8661;45.700;4.880;2022-10-04T06:44:49;9.30;;;5.70;;
17091;SDS011;8661;45.700;4.880;2022-10-04T06:47:33;10.53;;;5.70;;
17091;SDS011;8661;45.700;4.880;2022-10-04T06:50:16;8.07;;;5.97;;
17091;SDS011;8661;45.700;4.880;2022-10-04T06:55:53;9.97;;;5.93;;
17091;SDS011;8661;45.700;4.880;2022-10-04T07:01:37;10.47;;;6.27;;
17091;SDS011;8661;45.700;4.880;2022-10-04T07:04:16;11.30;;;7.83;;
17091;SDS011;8661;45.700;4.880;2022-10-04T07:06:57;12.37;;;6.77;;
17091;SDS011;8661;45.700;4.880;2022-10-04T07:09:49;13.40;;;7.83;;
17091;SDS011;8661;45.700;4.880;2022-10-04T07:12:19;14.47;;;8.23;;
17091;SDS011;8661;45.700;4.880;2022-10-04T07:14:47;15.90;;;8.97;;
17091;SDS011;8661;45.700;4.880;2022-10-04T07:17:20;15.33;;;9.27;;
17091;SDS011;8661;45.700;4.880;2022-10-04T07:19:52;13.37;;;7.90;;
17091;SDS011;8661;45.700;4.880;2022-10-04T07:22:21;12.53;;;7.30;;
17091;SDS011;8661;45.700;4.880;2022-10-04T07:25:02;22.07;;;7.70;;
17091;SDS011;8661;45.700;4.880;2022-10-04T07:27:42;13.20;;;7.37;;
17091;SDS011;8661;45.700;4.880;2022-10-04T07:30:37;17.43;;;8.27;;
17091;SDS011;8661;45.700;4.880;2022-10-04T07:33:10;16.40;;;7.70;;
17091;SDS011;8661;45.700;4.880;2022-10-04T07:35:42;17.17;;;7.67;;
17091;SDS011;8661;45.700;4.880;2022-10-04T07:38:14;19.90;;;7.43;;
17091;SDS011;8661;45.700;4.880;2022-10-04T07:40:56;13.87;;;6.87;;
17091;SDS011;8661;45.700;4.880;2022-10-04T07:43:29;19.10;;;7.20;;
17091;SDS011;8661;45.700;4.880;2022-10-04T07:46:01;16.60;;;7.17;;
17091;SDS011;8661;45.700;4.880;2022-10-04T07:48:32;17.73;;;7.93;;
17091;SDS011;8661;45.700;4.880;2022-10-04T07:51:00;13.53;;;6.83;;
17091;SDS011;8661;45.700;4.880;2022-10-04T07:53:37;15.33;;;7.20;;
17091;SDS011;8661;45.700;4.880;2022-10-04T07:56:09;14.83;;;7.00;;
17091;SDS011;8661;45.700;4.880;2022-10-04T07:58:40;16.93;;;6.90;;
17091;SDS011;8661;45.700;4.880;2022-10-04T08:01:22;11.10;;;6.00;;
17091;SDS011;8661;45.700;4.880;2022-10-04T08:04:00;15.20;;;6.57;;
17091;SDS011;8661;45.700;4.880;2022-10-04T08:06:37;15.10;;;7.13;;
17091;SDS011;8661;45.700;4.880;2022-10-04T08:09:18;10.70;;;6.40;;
17091;SDS011;8661;45.700;4.880;2022-10-04T08:12:05;16.20;;;7.70;;
17091;SDS011;8661;45.700;4.880;2022-10-04T08:14:45;9.83;;;6.90;;
17091;SDS011;8661;45.700;4.880;2022-10-04T08:17:21;14.07;;;7.80;;
17091;SDS011;8661;45.700;4.880;2022-10-04T08:20:16;10.23;;;6.77;;
17091;SDS011;8661;45.700;4.880;2022-10-04T08:22:56;13.83;;;7.50;;
17091;SDS011;8661;45.700;4.880;2022-10-04T08:25:33;19.37;;;8.57;;
17091;SDS011;8661;45.700;4.880;2022-10-04T08:28:09;14.53;;;8.50;;
17091;SDS011;8661;45.700;4.880;2022-10-04T08:31:12;14.43;;;8.77;;
17091;SDS011;8661;45.700;4.880;2022-10-04T08:33:55;14.63;;;8.37;;
17091;SDS011;8661;45.700;4.880;2022-10-04T08:36:37;16.70;;;8.50;;
17091;SDS011;8661;45.700;4.880;2022-10-04T08:39:16;13.00;;;8.40;;
17091;SDS011;8661;45.700;4.880;2022-10-04T08:41:59;12.63;;;7.70;;
17091;SDS011;8661;45.700;4.880;2022-10-04T08:54:52;13.43;;;8.97;;
17091;SDS011;8661;45.700;4.880;2022-10-04T09:00:45;13.03;;;8.67;;
17091;SDS011;8661;45.700;4.880;2022-10-04T09:06:31;16.37;;;9.20;;
17091;SDS011;8661;45.700;4.880;2022-10-04T09:09:19;13.67;;;9.50;;
17091;SDS011;8661;45.700;4.880;2022-10-04T09:12:21;14.90;;;9.67;;
17091;SDS011;8661;45.700;4.880;2022-10-04T09:15:22;13.20;;;9.07;;
17091;SDS011;8661;45.700;4.880;2022-10-04T09:18:01;14.93;;;8.33;;
17091;SDS011;8661;45.700;4.880;2022-10-04T09:20:47;13.30;;;8.63;;
17091;SDS011;8661;45.700;4.880;2022-10-04T09:26:26;19.27;;;8.23;;
17091;SDS011;8661;45.700;4.880;2022-10-04T09:29:11;11.90;;;7.70;;
17091;SDS011;8661;45.700;4.880;2022-10-04T09:32:17;12.03;;;7.43;;
17091;SDS011;8661;45.700;4.880;2022-10-04T09:35:38;13.13;;;7.63;;
17091;SDS011;8661;45.700;4.880;2022-10-04T09:38:36;8.67;;;6.87;;
17091;SDS011;8661;45.700;4.880;2022-10-04T09:41:21;9.33;;;7.10;;
17091;SDS011;8661;45.700;4.880;2022-10-04T09:47:02;9.67;;;6.20;;
17091;SDS011;8661;45.700;4.880;2022-10-04T09:49:44;11.20;;;7.30;;
17091;SDS011;8661;45.700;4.880;2022-10-04T09:52:39;10.57;;;5.87;;
17091;SDS011;8661;45.700;4.880;2022-10-04T09:58:13;9.47;;;6.93;;
17091;SDS011;8661;45.700;4.880;2022-10-04T10:00:54;9.20;;;6.00;;
17091;SDS011;8661;45.700;4.880;2022-10-04T10:06:32;9.40;;;6.20;;
17091;SDS011;8661;45.700;4.880;2022-10-04T10:09:20;9.60;;;5.93;;
17091;SDS011;8661;45.700;4.880;2022-10-04T10:15:28;9.13;;;7.33;;
17091;SDS011;8661;45.700;4.880;2022-10-04T10:18:07;13.37;;;7.67;;
17091;SDS011;8661;45.700;4.880;2022-10-04T10:20:50;12.93;;;7.60;;
17091;SDS011;8661;45.700;4.880;2022-10-04T10:24:03;11.57;;;7.30;;
17091;SDS011;8661;45.700;4.880;2022-10-04T10:27:14;8.60;;;6.37;;
17091;SDS011;8661;45.700;4.880;2022-10-04T10:30:10;7.90;;;6.03;;
17091;SDS011;8661;45.700;4.880;2022-10-04T10:36:05;8.97;;;6.27;;
17091;SDS011;8661;45.700;4.880;2022-10-04T10:39:07;7.13;;;6.10;;
17091;SDS011;8661;45.700;4.880;2022-10-04T10:42:18;6.40;;;5.53;;
17091;SDS011;8661;45.700;4.880;2022-10-04T10:45:11;6.27;;;5.50;;
17091;SDS011;8661;45.700;4.880;2022-10-04T10:47:59;12.73;;;5.70;;
17091;SDS011;8661;45.700;4.880;2022-10-04T10:50:46;9.27;;;5.93;;
17091;SDS011;8661;45.700;4.880;2022-10-04T10:56:41;6.90;;;5.63;;
17091;SDS011;8661;45.700;4.880;2022-10-04T11:02:32;7.67;;;6.13;;
17091;SDS011;8661;45.700;4.880;2022-10-04T11:08:24;8.10;;;5.93;;
17091;SDS011;8661;45.700;4.880;2022-10-04T11:11:29;8.37;;;5.50;;
17091;SDS011;8661;45.700;4.880;2022-10-04T11:14:34;7.73;;;5.80;;
17091;SDS011;8661;45.700;4.880;2022-10-04T11:17:17;7.27;;;5.83;;
17091;SDS011;8661;45.700;4.880;2022-10-04T11:20:13;6.53;;;5.83;;
17091;SDS011;8661;45.700;4.880;2022-10-04T11:23:08;8.93;;;5.57;;
17091;SDS011;8661;45.700;4.880;2022-10-04T11:25:58;7.10;;;5.53;;
17091;SDS011;8661;45.700;4.880;2022-10-04T11:28:42;8.47;;;6.13;;
17091;SDS011;8661;45.700;4.880;2022-10-04T11:37:51;6.70;;;5.60;;
17091;SDS011;8661;45.700;4.880;2022-10-04T11:40:36;7.10;;;5.33;;
17091;SDS011;8661;45.700;4.880;2022-10-04T11:43:22;5.80;;;5.20;;
17091;SDS011;8661;45.700;4.880;2022-10-04T11:46:03;6.13;;;5.30;;
17091;SDS011;8661;45.700;4.880;2022-10-04T11:48:44;8.57;;;5.90;;
17091;SDS011;8661;45.700;4.880;2022-10-04T11:51:25;6.70;;;5.67;;
17091;SDS011;8661;45.700;4.880;2022-10-04T11:57:25;6.47;;;5.10;;
17091;SDS011;8661;45.700;4.880;2022-10-04T12:00:03;8.17;;;4.93;;
17091;SDS011;8661;45.700;4.880;2022-10-04T12:02:45;5.70;;;5.10;;
17091;SDS011;8661;45.700;4.880;2022-10-04T12:08:36;4.87;;;4.20;;
17091;SDS011;8661;45.700;4.880;2022-10-04T12:11:23;6.00;;;4.97;;
17091;SDS011;8661;45.700;4.880;2022-10-04T12:14:25;5.90;;;4.27;;
17091;SDS011;8661;45.700;4.880;2022-10-04T12:17:25;5.27;;;4.13;;
17091;SDS011;8661;45.700;4.880;2022-10-04T12:23:28;5.43;;;4.27;;
17091;SDS011;8661;45.700;4.880;2022-10-04T12:32:37;4.47;;;4.07;;
17091;SDS011;8661;45.700;4.880;2022-10-04T12:35:16;4.77;;;4.03;;
17091;SDS011;8661;45.700;4.880;2022-10-04T12:37:58;5.37;;;4.20;;
17091;SDS011;8661;45.700;4.880;2022-10-04T12:40:50;4.17;;;3.77;;
17091;SDS011;8661;45.700;4.880;2022-10-04T12:43:27;9.17;;;4.03;;
17091;SDS011;8661;45.700;4.880;2022-10-04T12:46:04;4.13;;;3.70;;
17091;SDS011;8661;45.700;4.880;2022-10-04T12:48:48;4.80;;;3.83;;
17091;SDS011;8661;45.700;4.880;2022-10-04T12:51:34;6.43;;;4.00;;
17091;SDS011;8661;45.700;4.880;2022-10-04T12:54:11;4.33;;;3.70;;
17091;SDS011;8661;45.700;4.880;2022-10-04T12:57:06;5.10;;;4.20;;
17091;SDS011;8661;45.700;4.880;2022-10-04T12:59:54;5.47;;;4.00;;
17091;SDS011;8661;45.700;4.880;2022-10-04T13:02:34;4.53;;;3.63;;
17091;SDS011;8661;45.700;4.880;2022-10-04T13:05:21;4.77;;;3.50;;
17091;SDS011;8661;45.700;4.880;2022-10-04T13:08:04;3.87;;;3.23;;
17091;SDS011;8661;45.700;4.880;2022-10-04T13:10:45;5.90;;;3.50;;
17091;SDS011;8661;45.700;4.880;2022-10-04T13:13:35;3.47;;;3.17;;
17091;SDS011;8661;45.700;4.880;2022-10-04T13:16:22;6.30;;;3.10;;
17091;SDS011;8661;45.700;4.880;2022-10-04T13:18:59;5.50;;;3.07;;
17091;SDS011;8661;45.700;4.880;2022-10-04T13:24:41;4.23;;;3.10;;
17091;SDS011;8661;45.700;4.880;2022-10-04T13:27:33;4.07;;;3.10;;
17091;SDS011;8661;45.700;4.880;2022-10-04T13:30:13;4.40;;;3.10;;
17091;SDS011;8661;45.700;4.880;2022-10-04T13:32:46;4.23;;;3.10;;
17091;SDS011;8661;45.700;4.880;2022-10-04T13:35:22;4.37;;;2.93;;
17091;SDS011;8661;45.700;4.880;2022-10-04T13:38:03;3.10;;;2.80;;
17091;SDS011;8661;45.700;4.880;2022-10-04T13:41:01;3.87;;;2.70;;
17091;SDS011;8661;45.700;4.880;2022-10-04T13:43:53;5.20;;;2.77;;
17091;SDS011;8661;45.700;4.880;2022-10-04T13:46:37;5.20;;;2.93;;
17091;SDS011;8661;45.700;4.880;2022-10-04T13:52:09;4.63;;;2.80;;
17091;SDS011;8661;45.700;4.880;2022-10-04T13:55:11;3.80;;;2.73;;
17091;SDS011;8661;45.700;4.880;2022-10-04T13:58:10;4.17;;;2.70;;
17091;SDS011;8661;45.700;4.880;2022-10-04T14:00:59;3.63;;;2.97;;
17091;SDS011;8661;45.700;4.880;2022-10-04T14:03:44;3.83;;;2.63;;
17091;SDS011;8661;45.700;4.880;2022-10-04T14:06:31;3.23;;;2.57;;
17091;SDS011;8661;45.700;4.880;2022-10-04T14:09:21;3.40;;;3.10;;
17091;SDS011;8661;45.700;4.880;2022-10-04T14:21:50;8.40;;;3.80;;
17091;SDS011;8661;45.700;4.880;2022-10-04T14:27:42;6.53;;;3.07;;
17091;SDS011;8661;45.700;4.880;2022-10-04T14:30:22;7.73;;;3.73;;
17091;SDS011;8661;45.700;4.880;2022-10-04T14:35:54;6.37;;;3.63;;
17091;SDS011;8661;45.700;4.880;2022-10-04T14:38:37;7.40;;;3.80;;
17091;SDS011;8661;45.700;4.880;2022-10-04T14:47:35;6.07;;;3.47;;
17091;SDS011;8661;45.700;4.880;2022-10-04T14:50:30;7.93;;;3.87;;
17091;SDS011;8661;45.700;4.880;2022-10-04T14:53:09;7.03;;;3.70;;
17091;SDS011;8661;45.700;4.880;2022-10-04T14:58:50;8.47;;;3.97;;
17091;SDS011;8661;45.700;4.880;2022-10-04T15:01:26;5.90;;;3.60;;
17091;SDS011;8661;45.700;4.880;2022-10-04T15:04:07;7.80;;;4.27;;
17091;SDS011;8661;45.700;4.880;2022-10-04T15:06:54;4.30;;;3.90;;
17091;SDS011;8661;45.700;4.880;2022-10-04T15:09:25;6.03;;;3.97;;
17091;SDS011;8661;45.700;4.880;2022-10-04T15:12:19;7.73;;;4.23;;
17091;SDS011;8661;45.700;4.880;2022-10-04T15:15:14;7.97;;;3.97;;
17091;SDS011;8661;45.700;4.880;2022-10-04T15:17:54;7.07;;;3.70;;
17091;SDS011;8661;45.700;4.880;2022-10-04T15:20:31;5.93;;;4.17;;
17091;SDS011;8661;45.700;4.880;2022-10-04T15:23:14;5.53;;;4.00;;
17091;SDS011;8661;45.700;4.880;2022-10-04T15:25:45;7.47;;;4.00;;
17091;SDS011;8661;45.700;4.880;2022-10-04T15:28:23;5.30;;;3.87;;
17091;SDS011;8661;45.700;4.880;2022-10-04T15:31:03;9.03;;;3.90;;
17091;SDS011;8661;45.700;4.880;2022-10-04T15:33:38;5.90;;;4.40;;
17091;SDS011;8661;45.700;4.880;2022-10-04T15:39:25;5.97;;;4.20;;
17091;SDS011;8661;45.700;4.880;2022-10-04T15:42:12;5.70;;;3.87;;
17091;SDS011;8661;45.700;4.880;2022-10-04T15:45:00;4.90;;;3.53;;
17091;SDS011;8661;45.700;4.880;2022-10-04T15:48:00;4.67;;;3.57;;
17091;SDS011;8661;45.700;4.880;2022-10-04T15:50:39;6.70;;;3.90;;
17091;SDS011;8661;45.700;4.880;2022-10-04T15:53:25;4.13;;;3.63;;
17091;SDS011;8661;45.700;4.880;2022-10-04T15:59:14;8.87;;;3.77;;
17091;SDS011;8661;45.700;4.880;2022-10-04T16:02:15;6.40;;;3.57;;
17091;SDS011;8661;45.700;4.880;2022-10-04T16:05:15;7.93;;;4.60;;
17091;SDS011;8661;45.700;4.880;2022-10-04T16:07:53;8.33;;;4.43;;
17091;SDS011;8661;45.700;4.880;2022-10-04T16:10:45;6.20;;;4.80;;
17091;SDS011;8661;45.700;4.880;2022-10-04T16:16:27;10.00;;;4.87;;
17091;SDS011;8661;45.700;4.880;2022-10-04T16:19:19;6.93;;;4.30;;
17091;SDS011;8661;45.700;4.880;2022-10-04T16:22:07;6.73;;;3.97;;
17091;SDS011;8661;45.700;4.880;2022-10-04T16:24:40;6.40;;;4.73;;
17091;SDS011;8661;45.700;4.880;2022-10-04T16:30:23;7.03;;;4.47;;
17091;SDS011;8661;45.700;4.880;2022-10-04T16:33:00;7.57;;;4.47;;
17091;SDS011;8661;45.700;4.880;2022-10-04T16:35:38;7.47;;;5.30;;
17091;SDS011;8661;45.700;4.880;2022-10-04T16:38:18;9.87;;;4.77;;
17091;SDS011;8661;45.700;4.880;2022-10-04T16:40:55;7.53;;;4.47;;
17091;SDS011;8661;45.700;4.880;2022-10-04T16:43:33;6.90;;;4.40;;
17091;SDS011;8661;45.700;4.880;2022-10-04T16:46:18;8.47;;;4.33;;
17091;SDS011;8661;45.700;4.880;2022-10-04T16:48:51;10.63;;;4.80;;
17091;SDS011;8661;45.700;4.880;2022-10-04T16:57:27;6.70;;;5.23;;
17091;SDS011;8661;45.700;4.880;2022-10-04T16:59:54;10.60;;;5.87;;
17091;SDS011;8661;45.700;4.880;2022-10-04T17:05:31;11.13;;;5.80;;
17091;SDS011;8661;45.700;4.880;2022-10-04T17:11:13;12.30;;;6.30;;
17091;SDS011;8661;45.700;4.880;2022-10-04T17:14:01;14.77;;;7.33;;
17091;SDS011;8661;45.700;4.880;2022-10-04T17:16:45;11.60;;;6.27;;
17091;SDS011;8661;45.700;4.880;2022-10-04T17:19:20;11.77;;;6.47;;
17091;SDS011;8661;45.700;4.880;2022-10-04T17:21:59;9.43;;;6.13;;
17091;SDS011;8661;45.700;4.880;2022-10-04T17:24:39;9.10;;;6.37;;
17091;SDS011;8661;45.700;4.880;2022-10-04T17:27:17;10.47;;;5.50;;
17091;SDS011;8661;45.700;4.880;2022-10-04T17:29:56;9.40;;;5.07;;
17091;SDS011;8661;45.700;4.880;2022-10-04T17:32:31;9.03;;;5.90;;
17091;SDS011;8661;45.700;4.880;2022-10-04T17:35:15;9.47;;;5.67;;
17091;SDS011;8661;45.700;4.880;2022-10-04T17:38:12;15.23;;;6.10;;
17091;SDS011;8661;45.700;4.880;2022-10-04T17:40:47;10.17;;;6.23;;
17091;SDS011;8661;45.700;4.880;2022-10-04T17:43:22;14.43;;;6.63;;
17091;SDS011;8661;45.700;4.880;2022-10-04T17:46:04;10.87;;;6.70;;
17091;SDS011;8661;45.700;4.880;2022-10-04T17:48:41;11.17;;;7.47;;
17091;SDS011;8661;45.700;4.880;2022-10-04T17:51:33;14.90;;;8.23;;
17091;SDS011;8661;45.700;4.880;2022-10-04T17:54:25;15.63;;;7.97;;
17091;SDS011;8661;45.700;4.880;2022-10-04T17:57:17;13.70;;;9.90;;
17091;SDS011;8661;45.700;4.880;2022-10-04T17:59:52;16.87;;;10.70;;
17091;SDS011;8661;45.700;4.880;2022-10-04T18:02:28;16.73;;;11.30;;
17091;SDS011;8661;45.700;4.880;2022-10-04T18:05:13;19.53;;;11.67;;
17091;SDS011;8661;45.700;4.880;2022-10-04T18:07:44;19.30;;;13.20;;
17091;SDS011;8661;45.700;4.880;2022-10-04T18:10:21;24.73;;;15.30;;
17091;SDS011;8661;45.700;4.880;2022-10-04T18:12:55;22.40;;;14.77;;
17091;SDS011;8661;45.700;4.880;2022-10-04T18:15:26;20.70;;;13.43;;
17091;SDS011;8661;45.700;4.880;2022-10-04T18:21:03;19.83;;;11.87;;
17091;SDS011;8661;45.700;4.880;2022-10-04T18:23:32;26.43;;;12.20;;
17091;SDS011;8661;45.700;4.880;2022-10-04T18:26:08;16.77;;;12.20;;
17091;SDS011;8661;45.700;4.880;2022-10-04T18:28:41;20.50;;;12.30;;
17091;SDS011;8661;45.700;4.880;2022-10-04T18:31:17;19.37;;;12.67;;
17091;SDS011;8661;45.700;4.880;2022-10-04T18:33:54;20.70;;;12.23;;
17091;SDS011;8661;45.700;4.880;2022-10-04T18:36:23;18.87;;;12.33;;